Terminal Aerodrome Forecast
Issued by NWS

Home | Current Version | Previous Version | Text Only | Print | Product List | Glossary On
Versions: 1 2 3 4 5 6 7 8 9 10 11 12 13 14 15 16 17 18 19 20 21 22 23 24 25 26 27 28 29 30
000
FTUS46 KSGX 252155 AAB
TAFSAN
TAF AMD
KSAN 252155Z 2522/2624 28010G15KT P6SM SCT020 BKN025 BKN080
     FM260300 27015G25KT P6SM VCSH SCT020 BKN025 OVC040
     FM261000 29010KT P6SM SCT020 BKN030
     FM261400 VRB05KT P6SM SCT020 BKN030
     FM262200 31012KT P6SM SCT050=

USA.gov is the U.S. government's official web portal to all federal, state and local government web resources and services.